createdAt,value
2023-02-08T00:00:39.004Z,103224.95
2023-02-08T00:03:06.150Z,103231.73
2023-02-08T00:05:33.260Z,103233.80
2023-02-08T00:08:03.273Z,103231.08
2023-02-08T00:10:30.500Z,103228.02
2023-02-08T00:12:59.817Z,103226.85
2023-02-08T00:15:28.014Z,103235.80
2023-02-08T00:17:55.763Z,103238.44
2023-02-08T00:20:22.872Z,103236.79
2023-02-08T00:22:50.775Z,103235.58
2023-02-08T00:25:19.780Z,103238.67
2023-02-08T00:27:46.709Z,103243.77
2023-02-08T00:30:13.651Z,103245.27
2023-02-08T00:32:40.560Z,103247.40
2023-02-08T00:35:07.786Z,103244.54
2023-02-08T00:37:34.846Z,103244.09
2023-02-08T00:40:02.152Z,103251.55
2023-02-08T00:42:29.665Z,103253.40
2023-02-08T00:44:57.422Z,103246.60
2023-02-08T00:47:24.512Z,103249.47
2023-02-08T00:49:51.754Z,103250.30
2023-02-08T00:52:18.801Z,103255.08
2023-02-08T00:54:46.335Z,103257.56
2023-02-08T00:57:13.873Z,103265.20
2023-02-08T00:59:40.753Z,103269.78
2023-02-08T01:02:09.484Z,103272.52
2023-02-08T01:04:37.377Z,103279.10
2023-02-08T01:07:04.774Z,103277.92
2023-02-08T01:09:32.076Z,103281.20
2023-02-08T01:12:05.521Z,103284.81
2023-02-08T01:14:33.707Z,103288.09
2023-02-08T01:17:00.808Z,103288.00
2023-02-08T01:19:31.104Z,103293.00
2023-02-08T01:21:58.229Z,103299.69
2023-02-08T01:24:25.150Z,103298.23
2023-02-08T01:26:52.203Z,103308.41
2023-02-08T01:29:19.430Z,103312.04
2023-02-08T01:31:46.570Z,103308.67
2023-02-08T01:34:13.679Z,103307.23
2023-02-08T01:36:43.736Z,103315.37
2023-02-08T01:39:11.047Z,103318.98
2023-02-08T01:41:43.439Z,103326.18
2023-02-08T01:44:13.509Z,103327.27
2023-02-08T01:46:42.516Z,103327.30
2023-02-08T01:49:23.488Z,103327.47
2023-02-08T01:52:10.066Z,103330.24
2023-02-08T01:54:43.798Z,103338.02
2023-02-08T01:57:11.131Z,103346.68
2023-02-08T01:59:40.854Z,103350.70
2023-02-08T02:02:10.872Z,103354.76
2023-02-08T02:04:38.079Z,103358.73
2023-02-08T02:07:05.048Z,103362.27
2023-02-08T02:09:52.817Z,103366.64
2023-02-08T02:12:19.792Z,103368.51
2023-02-08T02:14:46.749Z,103372.55
2023-02-08T02:17:14.678Z,103368.83
2023-02-08T02:20:02.776Z,103371.19
2023-02-08T02:22:45.665Z,103375.17
2023-02-08T02:25:41.751Z,103383.16
2023-02-08T02:28:15.162Z,103387.95
2023-02-08T02:30:51.297Z,103386.76
2023-02-08T02:33:40.025Z,103382.52
2023-02-08T02:36:36.567Z,103383.97
2023-02-08T02:39:40.057Z,103391.61
2023-02-08T02:42:32.622Z,103394.44
2023-02-08T02:45:30.315Z,103393.50
2023-02-08T02:48:11.923Z,103394.41
2023-02-08T02:50:54.864Z,103389.41
2023-02-08T02:53:51.362Z,103393.07
2023-02-08T02:56:23.725Z,103397.58
2023-02-08T02:58:50.776Z,103400.14
2023-02-08T03:01:25.514Z,103398.08
2023-02-08T03:03:53.315Z,103394.81
2023-02-08T03:06:59.496Z,103395.11
2023-02-08T03:09:35.959Z,103396.66
2023-02-08T03:12:10.958Z,103402.22
2023-02-08T03:14:58.350Z,103403.17
2023-02-08T03:17:41.117Z,103409.30
2023-02-08T03:20:10.314Z,103409.78
2023-02-08T03:22:41.421Z,103413.57
2023-02-08T03:25:23.559Z,103416.23
2023-02-08T03:28:09.457Z,103419.77
2023-02-08T03:30:46.556Z,103420.73
2023-02-08T03:33:18.465Z,103423.05
2023-02-08T03:35:56.832Z,103423.42
2023-02-08T03:38:30.574Z,103425.55
2023-02-08T03:40:58.880Z,103432.41
2023-02-08T03:43:42.265Z,103433.17
2023-02-08T03:46:22.222Z,103439.21
2023-02-08T03:48:53.945Z,103437.84
2023-02-08T03:51:20.940Z,103440.45
2023-02-08T03:53:48.596Z,103447.04
2023-02-08T03:56:22.141Z,103450.36
2023-02-08T03:58:57.708Z,103448.60
2023-02-08T04:01:38.316Z,103452.27
2023-02-08T04:04:05.459Z,103463.07
2023-02-08T04:06:32.761Z,103472.73
2023-02-08T04:08:59.767Z,103477.84
2023-02-08T04:11:28.421Z,103478.86
2023-02-08T04:13:56.341Z,103483.67
2023-02-08T04:16:23.239Z,103488.73
2023-02-08T04:18:50.116Z,103492.53
2023-02-08T04:21:17.051Z,103497.95
2023-02-08T04:23:44.000Z,103498.13
2023-02-08T04:26:11.083Z,103497.27
2023-02-08T04:28:38.484Z,103506.92
2023-02-08T04:31:05.469Z,103510.84
2023-02-08T04:33:33.915Z,103514.24
2023-02-08T04:36:00.824Z,103519.32
2023-02-08T04:38:27.845Z,103516.92
2023-02-08T04:40:54.920Z,103526.39
2023-02-08T04:43:21.801Z,103525.05
2023-02-08T04:45:51.794Z,103525.52
2023-02-08T04:48:19.025Z,103526.59
2023-02-08T04:50:46.153Z,103529.31
2023-02-08T04:53:13.114Z,103530.15
2023-02-08T04:55:40.863Z,103534.10
2023-02-08T04:58:08.606Z,103532.89
2023-02-08T05:00:36.520Z,103533.27
2023-02-08T05:03:06.197Z,103528.00
2023-02-08T05:05:33.894Z,103532.17
2023-02-08T05:08:02.335Z,103535.19
2023-02-08T05:10:29.685Z,103545.48
2023-02-08T05:12:56.568Z,103545.33
2023-02-08T05:15:23.534Z,103548.27
2023-02-08T05:17:50.492Z,103549.92
2023-02-08T05:20:18.658Z,103549.09
2023-02-08T05:22:45.455Z,103548.16
2023-02-08T05:25:12.993Z,103552.78
2023-02-08T05:27:40.052Z,103554.36
2023-02-08T05:30:07.510Z,103560.67
2023-02-08T05:32:35.828Z,103560.94
2023-02-08T05:35:03.596Z,103564.84
2023-02-08T05:37:31.008Z,103563.04
2023-02-08T05:39:59.032Z,103563.02
2023-02-08T05:42:26.548Z,103564.93
2023-02-08T05:44:53.649Z,103572.53
2023-02-08T05:47:22.118Z,103577.98
2023-02-08T05:49:48.929Z,103581.55
2023-02-08T05:52:16.104Z,103582.52
2023-02-08T05:54:43.559Z,103585.13
2023-02-08T05:57:11.936Z,103586.90
2023-02-08T05:59:39.213Z,103592.80
2023-02-08T06:02:07.090Z,103590.51
2023-02-08T06:04:37.978Z,103590.83
2023-02-08T06:07:06.390Z,103592.68
2023-02-08T06:09:33.276Z,103595.13
2023-02-08T06:12:00.069Z,103597.30
2023-02-08T06:14:27.918Z,103602.13
2023-02-08T06:16:55.190Z,103602.35
2023-02-08T06:19:22.034Z,103604.15
2023-02-08T06:21:49.084Z,103604.09
2023-02-08T06:24:16.131Z,103610.19
2023-02-08T06:26:43.916Z,103611.95
2023-02-08T06:29:10.809Z,103611.01
2023-02-08T06:31:38.447Z,103608.50
2023-02-08T06:34:05.948Z,103606.39
2023-02-08T06:36:33.495Z,103608.10
2023-02-08T06:39:00.359Z,103606.29
2023-02-08T06:41:27.170Z,103612.69
2023-02-08T06:43:54.736Z,103612.80
2023-02-08T06:46:22.893Z,103617.06
2023-02-08T06:48:49.771Z,103615.82
2023-02-08T06:51:16.670Z,103620.15
2023-02-08T06:53:43.511Z,103624.50
2023-02-08T06:56:10.917Z,103631.35
2023-02-08T06:58:38.288Z,103633.02
2023-02-08T07:01:05.391Z,103631.20
2023-02-08T07:03:33.907Z,103625.30
2023-02-08T07:06:05.274Z,103620.73
2023-02-08T07:08:33.513Z,103618.02
2023-02-08T07:11:08.578Z,103622.46
2023-02-08T07:13:36.487Z,103616.40
2023-02-08T07:16:04.689Z,103619.11
2023-02-08T07:18:31.953Z,103618.42
2023-02-08T07:20:58.881Z,103613.76
2023-02-08T07:23:25.866Z,103617.63
2023-02-08T07:26:00.513Z,103623.16
2023-02-08T07:28:27.736Z,103623.30
2023-02-08T07:30:59.201Z,103628.38
2023-02-08T07:33:30.418Z,103623.89
2023-02-08T07:36:05.619Z,103626.27
2023-02-08T07:38:36.097Z,103619.55
2023-02-08T07:41:05.123Z,103621.48
2023-02-08T07:43:34.395Z,103620.67
2023-02-08T07:46:09.357Z,103623.86
2023-02-08T07:48:39.127Z,103625.84
2023-02-08T07:51:08.118Z,103624.23
2023-02-08T07:53:36.082Z,103621.02
2023-02-08T07:56:03.370Z,103621.90
2023-02-08T07:58:30.550Z,103622.98
2023-02-08T08:00:59.630Z,103624.73
2023-02-08T08:03:28.215Z,103625.93
2023-02-08T08:05:55.287Z,103626.38
2023-02-08T08:08:22.699Z,103622.35
2023-02-08T08:10:49.921Z,103626.66
2023-02-08T08:13:17.991Z,103628.40
2023-02-08T08:15:46.516Z,103628.52
2023-02-08T08:18:14.514Z,103633.75
2023-02-08T08:20:42.638Z,103633.11
2023-02-08T08:23:09.866Z,103637.94
2023-02-08T08:25:37.528Z,103639.49
2023-02-08T08:28:04.775Z,103633.46
2023-02-08T08:30:34.182Z,103635.48
2023-02-08T08:33:01.599Z,103632.88
2023-02-08T08:35:28.875Z,103633.61
2023-02-08T08:37:55.842Z,103636.52
2023-02-08T08:40:25.117Z,103642.30
2023-02-08T08:42:53.065Z,103642.48
2023-02-08T08:45:21.329Z,103638.84
2023-02-08T08:47:48.206Z,103639.83
2023-02-08T08:50:17.390Z,103638.85
2023-02-08T08:52:44.242Z,103638.26
2023-02-08T08:55:12.158Z,103642.65
2023-02-08T08:57:39.017Z,103640.09
2023-02-08T09:00:06.253Z,103637.98
2023-02-08T09:02:34.369Z,103638.40
2023-02-08T09:05:04.927Z,103633.97
2023-02-08T09:07:32.591Z,103633.98
2023-02-08T09:10:03.324Z,103630.85
2023-02-08T09:12:30.610Z,103632.69
2023-02-08T09:14:57.587Z,103630.70
2023-02-08T09:17:24.389Z,103628.09
2023-02-08T09:19:51.729Z,103632.73
2023-02-08T09:22:19.729Z,103635.66
2023-02-08T09:24:46.847Z,103625.30
2023-02-08T09:27:14.372Z,103618.77
2023-02-08T09:29:41.358Z,103617.69
2023-02-08T09:32:10.201Z,103612.77
2023-02-08T09:34:37.463Z,103616.11
2023-02-08T09:37:06.487Z,103609.84
2023-02-08T09:39:34.542Z,103607.27
2023-02-08T09:42:01.344Z,103607.52
2023-02-08T09:44:51.718Z,103604.66
2023-02-08T09:47:25.775Z,103602.70
2023-02-08T09:49:57.489Z,103596.80
2023-02-08T09:52:47.749Z,103596.09
2023-02-08T09:55:57.348Z,103588.54
2023-02-08T09:58:29.719Z,103585.08
2023-02-08T10:00:56.740Z,103578.04
2023-02-08T10:03:36.590Z,103577.66
2023-02-08T10:06:08.155Z,103571.88
2023-02-08T10:08:37.709Z,103568.97
2023-02-08T10:11:42.933Z,103565.00
2023-02-08T10:14:22.358Z,103561.35
2023-02-08T10:17:17.502Z,103562.80
2023-02-08T10:19:50.482Z,103560.30
2023-02-08T10:22:18.186Z,103559.31
2023-02-08T10:25:04.172Z,103561.33
2023-02-08T10:27:40.092Z,103561.50
2023-02-08T10:30:37.318Z,103562.90
2023-02-08T10:33:33.536Z,103572.13
2023-02-08T10:36:13.143Z,103564.36
2023-02-08T10:38:46.678Z,103570.02
2023-02-08T10:41:22.977Z,103571.47
2023-02-08T10:44:16.341Z,103571.83
2023-02-08T10:46:46.998Z,103569.07
2023-02-08T10:50:02.234Z,103567.91
2023-02-08T10:52:29.411Z,103563.03
2023-02-08T10:54:57.524Z,103558.85
2023-02-08T10:57:33.520Z,103561.02
2023-02-08T11:00:02.889Z,103560.29
2023-02-08T11:02:32.432Z,103555.59
2023-02-08T11:05:07.855Z,103558.27
2023-02-08T11:07:36.671Z,103557.61
2023-02-08T11:10:20.704Z,103557.52
2023-02-08T11:13:03.287Z,103557.77
2023-02-08T11:15:53.999Z,103560.15
2023-02-08T11:18:33.465Z,103558.02
2023-02-08T11:21:05.038Z,103562.31
2023-02-08T11:23:40.112Z,103560.93
2023-02-08T11:26:19.533Z,103563.21
2023-02-08T11:29:13.585Z,103559.29
2023-02-08T11:32:04.201Z,103564.12
2023-02-08T11:34:38.291Z,103562.27
2023-02-08T11:37:15.640Z,103563.23
2023-02-08T11:39:44.712Z,103566.16
2023-02-08T11:42:37.544Z,103569.58
2023-02-08T11:45:05.042Z,103571.44
2023-02-08T11:47:33.674Z,103567.83
2023-02-08T11:50:07.285Z,103569.25
2023-02-08T11:52:37.794Z,103565.47
2023-02-08T11:55:17.767Z,103563.16
2023-02-08T11:58:04.901Z,103563.45
2023-02-08T12:00:36.180Z,103564.15
2023-02-08T12:03:25.679Z,103561.72
2023-02-08T12:06:20.289Z,103562.11
2023-02-08T12:09:14.226Z,103560.04
2023-02-08T12:11:45.868Z,103561.64
2023-02-08T12:14:35.006Z,103563.14
2023-02-08T12:17:43.816Z,103563.28
2023-02-08T12:20:33.334Z,103562.95
2023-02-08T12:23:39.661Z,103561.30
2023-02-08T12:26:28.514Z,103562.94
2023-02-08T12:29:45.724Z,103556.84
2023-02-08T12:32:48.885Z,103556.60
2023-02-08T12:35:37.382Z,103553.86
2023-02-08T12:38:32.142Z,103553.58
2023-02-08T12:41:10.406Z,103555.66
2023-02-08T12:44:07.154Z,103552.53
2023-02-08T12:46:49.270Z,103551.98
2023-02-08T12:49:38.634Z,103553.48
2023-02-08T12:52:24.496Z,103552.86
2023-02-08T12:55:00.298Z,103552.05
2023-02-08T12:57:28.302Z,103551.92
2023-02-08T13:00:00.225Z,103549.71
2023-02-08T13:02:58.035Z,103552.82
2023-02-08T13:05:28.289Z,103551.94
2023-02-08T13:08:40.604Z,103554.82
2023-02-08T13:11:19.831Z,103551.70
2023-02-08T13:13:56.751Z,103545.52
2023-02-08T13:16:26.113Z,103544.47
2023-02-08T13:19:13.433Z,103546.73
2023-02-08T13:21:42.750Z,103546.98
2023-02-08T13:24:22.713Z,103541.60
2023-02-08T13:26:49.826Z,103541.67
2023-02-08T13:29:18.353Z,103537.52
2023-02-08T13:31:49.117Z,103533.39
2023-02-08T13:34:23.176Z,103536.63
2023-02-08T13:37:01.471Z,103531.61
2023-02-08T13:39:39.929Z,103532.76
2023-02-08T13:42:20.226Z,103526.83
2023-02-08T13:44:51.665Z,103524.54
2023-02-08T13:47:26.981Z,103519.21
2023-02-08T13:49:56.593Z,103518.86
2023-02-08T13:52:46.550Z,103516.45
2023-02-08T13:55:33.952Z,103515.34
2023-02-08T13:58:03.886Z,103511.16
2023-02-08T14:00:32.969Z,103513.95
2023-02-08T14:03:15.546Z,103510.66
2023-02-08T14:05:53.288Z,103507.74
2023-02-08T14:08:29.046Z,103506.27
2023-02-08T14:11:12.083Z,103511.21
2023-02-08T14:14:00.430Z,103513.64
2023-02-08T14:16:42.399Z,103516.13
2023-02-08T14:19:15.613Z,103512.73
2023-02-08T14:21:43.156Z,103519.11
2023-02-08T14:24:47.059Z,103523.00
2023-02-08T14:27:26.260Z,103524.70
2023-02-08T14:29:57.031Z,103521.16
2023-02-08T14:32:26.047Z,103522.05
2023-02-08T14:35:14.555Z,103523.55
2023-02-08T14:37:42.938Z,103524.66
2023-02-08T14:40:25.073Z,103523.56
2023-02-08T14:42:52.523Z,103523.30
2023-02-08T14:45:38.910Z,103524.88
2023-02-08T14:48:28.327Z,103520.38
2023-02-08T14:51:10.672Z,103523.35
2023-02-08T14:53:57.093Z,103523.19
2023-02-08T14:56:27.745Z,103528.98
2023-02-08T14:59:04.616Z,103530.50
2023-02-08T15:01:43.935Z,103534.19
2023-02-08T15:04:12.032Z,103533.13
2023-02-08T15:06:39.498Z,103531.67
2023-02-08T15:09:15.378Z,103533.20
2023-02-08T15:11:42.647Z,103530.60
2023-02-08T15:14:16.652Z,103530.48
2023-02-08T15:16:44.406Z,103529.86
2023-02-08T15:19:24.264Z,103530.03
2023-02-08T15:21:51.321Z,103533.05
2023-02-08T15:24:29.243Z,103530.73
2023-02-08T15:26:57.193Z,103526.95
2023-02-08T15:29:39.106Z,103530.81
2023-02-08T15:32:16.834Z,103529.07
2023-02-08T15:34:44.679Z,103531.48
2023-02-08T15:37:15.350Z,103536.80
2023-02-08T15:39:42.527Z,103538.63
2023-02-08T15:42:21.023Z,103540.18
2023-02-08T15:44:51.606Z,103540.41
2023-02-08T15:47:27.860Z,103533.91
2023-02-08T15:49:54.872Z,103532.01
2023-02-08T15:52:24.040Z,103533.73
2023-02-08T15:54:51.052Z,103534.52
2023-02-08T15:57:44.804Z,103540.77
2023-02-08T16:00:20.196Z,103549.09
2023-02-08T16:03:02.233Z,103553.41
2023-02-08T16:05:34.534Z,103550.05
2023-02-08T16:08:02.674Z,103548.36
2023-02-08T16:10:38.005Z,103548.96
2023-02-08T16:13:06.976Z,103551.07
2023-02-08T16:15:41.740Z,103550.50
2023-02-08T16:18:31.921Z,103553.21
2023-02-08T16:20:59.747Z,103554.94
2023-02-08T16:23:33.885Z,103558.88
2023-02-08T16:26:26.040Z,103556.68
2023-02-08T16:28:58.518Z,103557.09
2023-02-08T16:31:28.956Z,103563.02
2023-02-08T16:33:57.728Z,103558.63
2023-02-08T16:36:25.715Z,103558.12
2023-02-08T16:39:14.376Z,103558.10
2023-02-08T16:42:12.921Z,103553.95
2023-02-08T16:44:41.521Z,103558.80
2023-02-08T16:47:25.962Z,103558.96
2023-02-08T16:49:53.085Z,103559.05
2023-02-08T16:52:20.529Z,103563.80
2023-02-08T16:54:47.395Z,103563.27
2023-02-08T16:57:14.613Z,103560.27
2023-02-08T16:59:42.356Z,103559.35
2023-02-08T17:02:12.768Z,103554.42
2023-02-08T17:04:39.745Z,103555.77
2023-02-08T17:07:12.096Z,103554.63
2023-02-08T17:09:38.950Z,103551.86
2023-02-08T17:12:21.475Z,103547.85
2023-02-08T17:14:53.968Z,103545.36
2023-02-08T17:17:21.078Z,103544.79
2023-02-08T17:19:47.963Z,103547.08
2023-02-08T17:22:15.054Z,103549.66
2023-02-08T17:24:42.384Z,103554.39
2023-02-08T17:27:12.274Z,103555.04
2023-02-08T17:29:39.358Z,103555.86
2023-02-08T17:32:06.455Z,103559.36
2023-02-08T17:34:35.224Z,103557.58
2023-02-08T17:37:03.153Z,103559.01
2023-02-08T17:39:30.214Z,103553.88
2023-02-08T17:41:58.882Z,103549.46
2023-02-08T17:44:25.848Z,103545.76
2023-02-08T17:46:52.741Z,103543.30
2023-02-08T17:49:19.639Z,103537.98
2023-02-08T17:51:46.466Z,103536.61
2023-02-08T17:54:14.421Z,103534.58
2023-02-08T17:56:41.410Z,103528.70
2023-02-08T17:59:08.314Z,103529.34
2023-02-08T18:01:35.828Z,103531.08
2023-02-08T18:04:03.269Z,103529.19
2023-02-08T18:06:31.155Z,103531.31
2023-02-08T18:09:08.435Z,103529.42
2023-02-08T18:11:35.331Z,103529.30
2023-02-08T18:14:02.842Z,103531.79
2023-02-08T18:16:35.664Z,103532.77
2023-02-08T18:19:02.656Z,103527.08
2023-02-08T18:21:32.544Z,103525.55
2023-02-08T18:24:01.823Z,103522.11
2023-02-08T18:26:30.130Z,103519.23
2023-02-08T18:28:57.236Z,103520.50
2023-02-08T18:31:25.236Z,103521.04
2023-02-08T18:33:53.362Z,103515.94
2023-02-08T18:36:20.809Z,103516.56
2023-02-08T18:38:49.138Z,103514.27
2023-02-08T18:41:24.314Z,103517.10
2023-02-08T18:43:52.690Z,103520.25
2023-02-08T18:46:20.538Z,103517.77
2023-02-08T18:48:48.039Z,103516.85
2023-02-08T18:51:18.956Z,103517.86
2023-02-08T18:53:50.912Z,103514.48
2023-02-08T18:56:21.170Z,103521.99
2023-02-08T18:58:48.490Z,103520.52
2023-02-08T19:01:17.726Z,103517.49
2023-02-08T19:03:45.720Z,103516.76
2023-02-08T19:06:15.753Z,103517.73
2023-02-08T19:08:44.388Z,103518.41
2023-02-08T19:11:16.726Z,103515.66
2023-02-08T19:13:44.793Z,103520.73
2023-02-08T19:16:11.855Z,103517.89
2023-02-08T19:18:43.627Z,103515.81
2023-02-08T19:21:12.346Z,103514.34
2023-02-08T19:23:40.086Z,103511.74
2023-02-08T19:26:09.086Z,103513.38
2023-02-08T19:45:55.048Z,103509.67
2023-02-08T19:48:26.650Z,103516.98
2023-02-08T19:51:01.090Z,103520.02
2023-02-08T19:53:30.170Z,103520.52
2023-02-08T19:56:22.554Z,103519.89
2023-02-08T19:58:51.004Z,103512.19
2023-02-08T20:01:19.971Z,103508.60
2023-02-08T20:03:49.070Z,103504.40
2023-02-08T20:06:21.574Z,103509.80
2023-02-08T20:08:51.246Z,103512.77
2023-02-08T20:11:26.332Z,103508.23
2023-02-08T20:13:56.728Z,103505.51
2023-02-08T20:16:26.964Z,103499.77
2023-02-08T20:18:59.902Z,103499.52
2023-02-08T20:21:27.103Z,103495.88
2023-02-08T20:23:54.396Z,103496.89
2023-02-08T20:26:26.437Z,103494.80
2023-02-08T20:28:59.071Z,103488.54
2023-02-08T20:31:28.701Z,103482.92
2023-02-08T20:33:57.419Z,103482.80
2023-02-08T20:36:26.269Z,103478.70
2023-02-08T20:38:54.120Z,103474.28
2023-02-08T20:41:21.499Z,103474.20
2023-02-08T20:43:48.343Z,103471.71
2023-02-08T20:46:17.559Z,103465.50
2023-02-08T20:48:44.707Z,103465.48
2023-02-08T20:51:14.503Z,103465.73
2023-02-08T20:53:42.113Z,103469.09
2023-02-08T20:56:20.810Z,103466.75
2023-02-08T20:58:48.188Z,103470.77
2023-02-08T21:01:18.712Z,103471.42
2023-02-08T21:03:45.830Z,103472.10
2023-02-08T21:06:13.371Z,103471.64
2023-02-08T21:08:40.341Z,103470.38
2023-02-08T21:11:08.798Z,103464.92
2023-02-08T21:13:36.519Z,103461.99
2023-02-08T21:16:05.298Z,103465.11
2023-02-08T21:18:32.186Z,103465.56
2023-02-08T21:21:00.844Z,103458.12
2023-02-08T21:23:27.908Z,103456.09
2023-02-08T21:25:54.991Z,103456.88
2023-02-08T21:28:21.917Z,103456.86
2023-02-08T21:31:00.051Z,103457.27
2023-02-08T21:33:27.349Z,103462.81
2023-02-08T21:35:54.511Z,103465.27
2023-02-08T21:38:21.375Z,103466.80
2023-02-08T21:40:48.769Z,103464.52
2023-02-08T21:43:41.216Z,103462.77
2023-02-08T21:46:08.707Z,103460.95
2023-02-08T21:48:55.860Z,103460.83
2023-02-08T21:51:42.775Z,103459.83
2023-02-08T21:54:39.675Z,103456.00
2023-02-08T21:57:28.666Z,103454.98
2023-02-08T22:00:05.311Z,103456.25
2023-02-08T22:02:39.645Z,103456.82
2023-02-08T22:05:06.819Z,103453.88
2023-02-08T22:07:41.847Z,103455.48
2023-02-08T22:10:09.746Z,103451.44
2023-02-08T22:12:39.671Z,103449.60
2023-02-08T22:15:08.498Z,103444.73
2023-02-08T22:17:37.262Z,103442.95
2023-02-08T22:20:05.652Z,103436.34
2023-02-08T22:22:32.934Z,103435.92
2023-02-08T22:24:59.992Z,103433.02
2023-02-08T22:27:27.276Z,103433.39
2023-02-08T22:29:54.098Z,103432.73
2023-02-08T22:32:21.636Z,103429.40
2023-02-08T22:34:48.584Z,103431.83
2023-02-08T22:37:16.117Z,103433.69
2023-02-08T22:39:43.078Z,103432.29
2023-02-08T22:42:13.134Z,103432.21
2023-02-08T22:44:41.763Z,103432.23
2023-02-08T22:47:09.301Z,103424.31
2023-02-08T22:49:36.304Z,103427.39
2023-02-08T22:52:05.611Z,103425.17
2023-02-08T22:54:32.661Z,103423.15
2023-02-08T22:56:59.989Z,103421.65
2023-02-08T22:59:27.017Z,103417.26
2023-02-08T23:01:53.948Z,103414.23
2023-02-08T23:04:20.854Z,103411.72
2023-02-08T23:06:48.240Z,103409.34
2023-02-08T23:09:15.456Z,103403.16
2023-02-08T23:11:42.904Z,103400.57
2023-02-08T23:14:10.199Z,103395.02
2023-02-08T23:16:37.370Z,103393.02
2023-02-08T23:19:04.651Z,103388.43
2023-02-08T23:21:32.566Z,103386.52
2023-02-08T23:23:59.427Z,103388.05
2023-02-08T23:26:26.454Z,103390.27
2023-02-08T23:28:53.469Z,103389.71
2023-02-08T23:31:20.733Z,103388.77
2023-02-08T23:33:47.797Z,103385.05
2023-02-08T23:36:17.608Z,103383.66
2023-02-08T23:38:44.554Z,103385.82
2023-02-08T23:41:14.486Z,103387.76
2023-02-08T23:43:41.522Z,103383.95
2023-02-08T23:46:10.087Z,103386.78
2023-02-08T23:48:39.302Z,103376.08
2023-02-08T23:51:06.753Z,103373.53
2023-02-08T23:53:35.314Z,103370.98
2023-02-08T23:56:10.019Z,103366.60
2023-02-08T23:58:37.265Z,103363.62
